createdAt,value
2023-03-12T00:00:10.734Z,1.77
2023-03-12T00:02:38.156Z,1.05
2023-03-12T00:05:06.362Z,1.85
2023-03-12T00:07:35.873Z,2.55
2023-03-12T00:12:31.408Z,1.75
2023-03-12T00:14:58.892Z,1.75
2023-03-12T00:17:27.876Z,2.70
2023-03-12T00:19:55.048Z,1.52
2023-03-12T00:22:22.525Z,1.95
2023-03-12T00:24:55.184Z,2.60
2023-03-12T00:27:24.281Z,2.25
2023-03-12T00:29:52.148Z,1.45
2023-03-12T00:32:20.199Z,1.63
2023-03-12T00:34:53.302Z,1.92
2023-03-12T00:37:21.185Z,2.50
2023-03-12T00:39:48.533Z,1.25
2023-03-12T00:42:15.867Z,2.33
2023-03-12T00:44:43.721Z,2.58
2023-03-12T00:47:11.827Z,1.50
2023-03-12T00:49:39.334Z,1.90
2023-03-12T00:52:06.663Z,4.35
2023-03-12T00:54:33.871Z,1.40
2023-03-12T00:57:01.481Z,1.70
2023-03-12T00:59:28.812Z,2.30
2023-03-12T01:01:55.968Z,1.73
2023-03-12T01:04:23.330Z,2.13
2023-03-12T01:06:50.601Z,2.05
2023-03-12T01:09:17.843Z,1.88
2023-03-12T01:11:44.998Z,2.15
2023-03-12T01:14:12.310Z,1.65
2023-03-12T01:16:39.593Z,2.13
2023-03-12T01:19:06.905Z,2.17
2023-03-12T01:21:34.092Z,4.00
2023-03-12T01:24:01.497Z,1.25
2023-03-12T01:26:28.861Z,3.22
2023-03-12T01:28:56.148Z,2.15
2023-03-12T01:31:23.402Z,1.77
2023-03-12T01:33:52.971Z,2.88
2023-03-12T01:36:28.086Z,4.30
2023-03-12T01:38:58.753Z,1.90
2023-03-12T01:41:29.549Z,2.58
2023-03-12T01:43:56.846Z,2.40
2023-03-12T01:46:31.823Z,1.70
2023-03-12T01:49:09.539Z,2.38
2023-03-12T01:51:54.610Z,2.47
2023-03-12T01:54:46.461Z,2.20
2023-03-12T01:57:20.090Z,2.03
2023-03-12T01:59:53.808Z,2.97
2023-03-12T02:02:26.449Z,3.83
2023-03-12T02:05:27.361Z,1.52
2023-03-12T02:07:56.654Z,2.72
2023-03-12T02:10:25.983Z,2.47
2023-03-12T02:15:21.090Z,2.83
2023-03-12T02:17:48.303Z,1.98
2023-03-12T02:20:25.003Z,1.80
2023-03-12T02:23:48.481Z,3.03
2023-03-12T02:26:18.963Z,4.50
2023-03-12T02:28:47.203Z,3.65
2023-03-12T02:31:20.496Z,3.20
2023-03-12T02:33:47.846Z,4.45
2023-03-12T02:36:15.212Z,3.80
2023-03-12T02:38:49.566Z,4.63
2023-03-12T02:41:29.504Z,2.55
2023-03-12T02:44:11.317Z,2.15
2023-03-12T02:46:46.298Z,2.40
2023-03-12T02:49:14.824Z,3.20
2023-03-12T02:51:44.045Z,2.37
2023-03-12T02:54:12.821Z,3.03
2023-03-12T02:56:40.987Z,2.08
2023-03-12T02:59:09.733Z,2.30
2023-03-12T03:01:41.216Z,2.72
2023-03-12T03:04:11.770Z,2.05
2023-03-12T03:06:42.663Z,2.55
2023-03-12T03:09:10.133Z,2.55
2023-03-12T03:11:37.345Z,2.33
2023-03-12T03:14:06.714Z,2.53
2023-03-12T03:16:34.679Z,3.28
2023-03-12T03:19:01.965Z,2.00
2023-03-12T03:21:30.024Z,2.20
2023-03-12T03:23:57.199Z,1.95
2023-03-12T03:26:25.007Z,2.30
2023-03-12T03:28:53.069Z,3.58
2023-03-12T03:31:20.949Z,2.00
2023-03-12T03:33:49.131Z,2.30
2023-03-12T03:36:16.900Z,2.03
2023-03-12T03:38:52.842Z,1.90
2023-03-12T03:41:22.391Z,1.55
2023-03-12T03:43:49.697Z,1.42
2023-03-12T03:46:19.735Z,2.28
2023-03-12T03:48:52.545Z,5.22
2023-03-12T03:51:21.410Z,2.25
2023-03-12T03:53:52.980Z,1.60
2023-03-12T03:56:20.681Z,1.95
2023-03-12T03:58:50.510Z,1.98
2023-03-12T04:01:20.132Z,1.95
2023-03-12T04:03:48.567Z,2.20
2023-03-12T04:06:15.740Z,2.47
2023-03-12T04:08:43.421Z,1.33
2023-03-12T04:11:19.538Z,1.67
2023-03-12T04:13:47.691Z,1.88
2023-03-12T04:16:18.101Z,1.58
2023-03-12T04:18:45.656Z,1.52
2023-03-12T04:21:14.689Z,1.63
2023-03-12T04:23:43.106Z,1.67
2023-03-12T04:26:12.479Z,2.10
2023-03-12T04:28:40.338Z,1.65
2023-03-12T04:31:11.033Z,2.08
2023-03-12T04:33:42.500Z,2.85
2023-03-12T04:36:14.034Z,2.72
2023-03-12T04:38:44.195Z,2.00
2023-03-12T04:41:14.800Z,2.55
2023-03-12T04:43:50.025Z,1.83
2023-03-12T04:46:18.921Z,1.87
2023-03-12T04:48:46.397Z,2.65
2023-03-12T04:51:15.942Z,2.38
2023-03-12T04:53:43.750Z,3.40
2023-03-12T04:58:41.228Z,2.65
2023-03-12T05:01:24.888Z,2.28
2023-03-12T05:03:53.878Z,2.58
2023-03-12T05:06:23.137Z,1.60
2023-03-12T05:08:51.497Z,1.20
2023-03-12T05:11:19.536Z,2.47
2023-03-12T05:13:46.821Z,2.55
2023-03-12T05:16:15.284Z,3.03
2023-03-12T05:18:44.180Z,3.90
2023-03-12T05:21:18.579Z,2.88
2023-03-12T05:23:47.058Z,2.30
2023-03-12T05:26:25.158Z,2.25
2023-03-12T05:28:57.225Z,2.40
2023-03-12T05:31:25.412Z,2.00
2023-03-12T05:33:53.196Z,2.17
2023-03-12T05:36:21.804Z,2.22
2023-03-12T05:38:49.759Z,3.30
2023-03-12T05:41:26.864Z,3.45
2023-03-12T05:43:58.183Z,2.92
2023-03-12T05:46:27.635Z,2.00
2023-03-12T05:51:23.004Z,1.10
2023-03-12T05:53:50.385Z,3.75
2023-03-12T05:56:18.347Z,2.05
2023-03-12T05:58:49.368Z,2.45
2023-03-12T06:01:27.456Z,3.33
2023-03-12T06:03:57.396Z,2.10
2023-03-12T06:06:25.854Z,2.42
2023-03-12T06:08:53.919Z,1.75
2023-03-12T06:11:21.137Z,2.35
2023-03-12T06:13:48.607Z,1.75
2023-03-12T06:16:23.198Z,1.77
2023-03-12T06:18:58.130Z,2.03
2023-03-12T06:21:30.104Z,1.90
2023-03-12T06:23:58.469Z,2.33
2023-03-12T06:26:30.773Z,2.05
2023-03-12T06:28:58.244Z,1.98
2023-03-12T06:31:25.745Z,2.65
2023-03-12T06:33:53.176Z,2.25
2023-03-12T06:36:22.425Z,1.90
2023-03-12T06:38:49.991Z,2.13
2023-03-12T06:41:19.768Z,1.88
2023-03-12T06:43:47.878Z,2.05
2023-03-12T06:46:18.880Z,2.10
2023-03-12T06:48:46.131Z,2.20
2023-03-12T06:51:15.642Z,2.58
2023-03-12T06:53:43.602Z,2.67
2023-03-12T06:56:12.796Z,2.05
2023-03-12T06:58:40.420Z,2.22
2023-03-12T07:01:08.213Z,2.28
2023-03-12T07:03:35.843Z,2.45
2023-03-12T07:06:03.970Z,1.67
2023-03-12T07:08:31.441Z,2.17
2023-03-12T07:11:02.779Z,2.58
2023-03-12T07:13:30.573Z,1.90
2023-03-12T07:15:57.980Z,1.50
2023-03-12T07:18:25.325Z,2.75
2023-03-12T07:20:53.453Z,2.20
2023-03-12T07:23:21.336Z,2.15
2023-03-12T07:25:49.360Z,2.28
2023-03-12T07:28:18.235Z,2.40
2023-03-12T07:30:49.909Z,3.08
2023-03-12T07:33:20.137Z,2.30
2023-03-12T07:35:51.459Z,3.65
2023-03-12T07:38:19.427Z,3.55
2023-03-12T07:40:57.950Z,2.85
2023-03-12T07:43:25.703Z,4.93
2023-03-12T07:48:22.446Z,4.15
2023-03-12T07:50:49.752Z,4.35
2023-03-12T07:53:17.135Z,3.85
2023-03-12T07:55:46.586Z,3.05
2023-03-12T08:00:43.202Z,2.63
2023-03-12T08:03:10.814Z,2.65
2023-03-12T08:05:38.638Z,3.38
2023-03-12T08:08:06.611Z,2.90
2023-03-12T08:10:34.152Z,3.65
2023-03-12T08:13:01.428Z,3.40
2023-03-12T08:15:28.715Z,4.03
2023-03-12T08:17:55.961Z,2.53
2023-03-12T08:20:23.318Z,5.13
2023-03-12T08:22:50.655Z,4.45
2023-03-12T08:25:20.401Z,3.97
2023-03-12T08:27:47.613Z,6.78
2023-03-12T08:30:15.751Z,6.20
2023-03-12T08:32:43.191Z,4.97
2023-03-12T08:35:10.373Z,6.43
2023-03-12T08:37:37.627Z,6.85
2023-03-12T08:40:12.465Z,3.30
2023-03-12T08:42:44.124Z,5.25
2023-03-12T08:45:13.624Z,3.08
2023-03-12T08:47:41.134Z,6.10
2023-03-12T08:50:11.963Z,4.05
2023-03-12T08:52:39.682Z,1.98
2023-03-12T08:55:07.598Z,2.28
2023-03-12T08:57:34.988Z,3.15
2023-03-12T09:00:05.181Z,2.17
2023-03-12T09:02:32.414Z,1.85
2023-03-12T09:04:59.675Z,2.80
2023-03-12T09:07:26.857Z,2.97
2023-03-12T09:09:57.221Z,2.60
2023-03-12T09:12:24.858Z,3.80
2023-03-12T09:15:07.760Z,3.13
2023-03-12T09:17:35.233Z,2.45
2023-03-12T09:20:07.449Z,2.30
2023-03-12T09:22:36.825Z,3.65
2023-03-12T09:25:06.971Z,6.03
2023-03-12T09:27:44.395Z,4.05
2023-03-12T09:30:19.407Z,3.80
2023-03-12T09:32:47.437Z,2.78
2023-03-12T09:35:16.138Z,4.15
2023-03-12T09:37:43.548Z,6.82
2023-03-12T09:40:22.513Z,4.05
2023-03-12T09:42:56.703Z,6.15
2023-03-12T09:45:31.698Z,2.30
2023-03-12T09:48:02.731Z,2.10
2023-03-12T09:50:42.845Z,2.25
2023-03-12T09:53:32.549Z,2.10
2023-03-12T09:56:08.627Z,2.80
2023-03-12T09:58:37.903Z,1.92
2023-03-12T10:01:38.044Z,2.17
2023-03-12T10:04:20.085Z,2.60
2023-03-12T10:07:15.906Z,2.63
2023-03-12T10:10:27.059Z,2.17
2023-03-12T10:13:37.758Z,2.05
2023-03-12T10:16:38.013Z,2.40
2023-03-12T10:19:34.285Z,2.60
2023-03-12T10:22:43.551Z,3.58
2023-03-12T10:25:26.573Z,3.22
2023-03-12T10:28:00.581Z,2.70
2023-03-12T10:30:29.923Z,3.08
2023-03-12T10:33:03.683Z,3.90
2023-03-12T10:35:31.100Z,3.17
2023-03-12T10:38:04.965Z,2.85
2023-03-12T10:40:36.173Z,4.13
2023-03-12T10:43:06.555Z,2.83
2023-03-12T10:46:19.365Z,2.47
2023-03-12T10:48:46.577Z,2.70
2023-03-12T10:51:13.992Z,3.25
2023-03-12T10:53:44.313Z,3.25
2023-03-12T10:56:19.715Z,4.15
2023-03-12T10:58:53.051Z,3.72
2023-03-12T11:01:30.870Z,2.67
2023-03-12T11:04:21.302Z,2.50
2023-03-12T11:07:18.754Z,2.17
2023-03-12T11:10:01.981Z,2.22
2023-03-12T11:12:30.533Z,2.45
2023-03-12T11:14:58.629Z,2.90
2023-03-12T11:17:29.238Z,3.10
2023-03-12T11:19:56.524Z,2.20
2023-03-12T11:22:32.713Z,2.30
2023-03-12T11:25:06.680Z,2.40
2023-03-12T11:28:00.784Z,3.38
2023-03-12T11:30:40.056Z,2.13
2023-03-12T11:33:10.764Z,2.35
2023-03-12T11:36:40.694Z,1.80
2023-03-12T11:39:42.358Z,2.47
2023-03-12T11:42:39.021Z,3.30
2023-03-12T11:45:28.181Z,2.40
2023-03-12T11:48:16.582Z,1.52
2023-03-12T11:51:06.891Z,2.55
2023-03-12T11:54:18.453Z,2.42
2023-03-12T11:56:56.176Z,2.95
2023-03-12T11:59:37.630Z,2.33
2023-03-12T12:02:33.498Z,3.55
2023-03-12T12:05:48.392Z,3.90
2023-03-12T12:08:35.763Z,2.20
2023-03-12T12:11:21.206Z,2.25
2023-03-12T12:14:12.862Z,2.45
2023-03-12T12:16:58.565Z,2.50
2023-03-12T12:20:18.595Z,3.42
2023-03-12T12:23:25.801Z,3.40
2023-03-12T12:26:05.057Z,2.50
2023-03-12T12:29:01.876Z,2.88
2023-03-12T12:31:49.904Z,2.40
2023-03-12T12:34:57.127Z,2.67
2023-03-12T12:37:37.616Z,2.88
2023-03-12T12:40:42.957Z,2.15
2023-03-12T12:43:35.550Z,8.95
2023-03-12T12:46:25.963Z,12.00
2023-03-12T12:48:58.823Z,12.45
2023-03-12T12:51:48.401Z,2.60
2023-03-12T12:54:53.221Z,1.63
2023-03-12T12:58:05.375Z,2.90
2023-03-12T13:00:54.600Z,1.63
2023-03-12T13:03:25.429Z,3.67
2023-03-12T13:06:02.376Z,2.97
2023-03-12T13:08:42.463Z,2.47
2023-03-12T13:11:20.293Z,2.22
2023-03-12T13:14:14.078Z,4.15
2023-03-12T13:16:43.952Z,2.83
2023-03-12T13:19:14.215Z,2.25
2023-03-12T13:22:15.232Z,3.90
2023-03-12T13:25:00.404Z,3.08
2023-03-12T13:27:39.370Z,4.40
2023-03-12T13:30:34.503Z,27.33
2023-03-12T13:33:10.314Z,2.40
2023-03-12T13:35:39.524Z,2.30
2023-03-12T13:38:17.113Z,1.80
2023-03-12T13:41:01.493Z,2.40
2023-03-12T13:43:37.804Z,2.67
2023-03-12T13:46:16.486Z,3.10
2023-03-12T13:48:48.806Z,3.05
2023-03-12T13:51:23.477Z,3.53
2023-03-12T13:54:03.690Z,2.70
2023-03-12T13:56:32.900Z,5.95
2023-03-12T13:59:06.680Z,4.33
2023-03-12T14:01:43.505Z,11.48
2023-03-12T14:04:40.431Z,4.35
2023-03-12T14:07:38.377Z,3.33
2023-03-12T14:10:50.709Z,2.28
2023-03-12T14:13:48.782Z,2.13
2023-03-12T14:16:46.533Z,2.28
2023-03-12T14:19:17.949Z,2.00
2023-03-12T14:21:48.780Z,2.88
2023-03-12T14:24:31.825Z,2.30
2023-03-12T14:27:01.970Z,2.75
2023-03-12T14:29:37.715Z,2.40
2023-03-12T14:32:19.408Z,2.10
2023-03-12T14:35:22.124Z,2.17
2023-03-12T14:38:13.087Z,1.92
2023-03-12T14:41:03.443Z,2.22
2023-03-12T14:43:34.013Z,2.60
2023-03-12T14:46:06.389Z,3.58
2023-03-12T14:48:36.650Z,3.25
2023-03-12T14:51:07.123Z,3.65
2023-03-12T14:53:38.913Z,2.50
2023-03-12T14:56:34.694Z,3.15
2023-03-12T14:59:28.233Z,2.75
2023-03-12T15:02:11.645Z,2.60
2023-03-12T15:04:39.956Z,2.20
2023-03-12T15:07:12.095Z,2.97
2023-03-12T15:09:45.040Z,3.67
2023-03-12T15:12:36.540Z,3.53
2023-03-12T15:15:16.412Z,4.70
2023-03-12T15:17:43.769Z,3.05
2023-03-12T15:20:15.732Z,2.97
2023-03-12T15:22:43.245Z,2.67
2023-03-12T15:25:25.733Z,3.42
2023-03-12T15:28:27.135Z,2.97
2023-03-12T15:31:14.903Z,5.00
2023-03-12T15:33:58.575Z,3.08
2023-03-12T15:36:29.293Z,3.00
2023-03-12T15:39:25.968Z,3.40
2023-03-12T15:41:54.755Z,14.20
2023-03-12T15:44:29.166Z,6.20
2023-03-12T15:47:10.724Z,8.07
2023-03-12T15:49:39.235Z,5.05
2023-03-12T15:52:06.358Z,3.93
2023-03-12T15:54:35.734Z,4.82
2023-03-12T15:57:23.834Z,3.50
2023-03-12T16:00:11.490Z,3.95
2023-03-12T16:03:03.441Z,4.65
2023-03-12T16:05:38.186Z,5.20
2023-03-12T16:08:27.590Z,5.82
2023-03-12T16:10:55.945Z,6.13
2023-03-12T16:13:30.520Z,4.80
2023-03-12T16:15:58.422Z,4.45
2023-03-12T16:18:25.695Z,7.20
2023-03-12T16:20:53.913Z,8.52
2023-03-12T16:23:21.424Z,6.07
2023-03-12T16:25:52.352Z,7.55
2023-03-12T16:28:20.732Z,6.72
2023-03-12T16:30:48.581Z,5.70
2023-03-12T16:33:19.578Z,5.63
2023-03-12T16:35:47.813Z,7.05
2023-03-12T16:38:15.277Z,4.97
2023-03-12T16:40:49.101Z,4.72
2023-03-12T16:43:27.520Z,5.13
2023-03-12T16:45:55.816Z,5.55
2023-03-12T16:48:23.993Z,5.88
2023-03-12T16:50:57.033Z,7.00
2023-03-12T16:53:25.052Z,7.88
2023-03-12T16:55:58.694Z,7.32
2023-03-12T16:58:27.491Z,8.23
2023-03-12T17:00:55.799Z,9.82
2023-03-12T17:03:41.712Z,9.73
2023-03-12T17:06:22.126Z,9.48
2023-03-12T17:08:50.467Z,9.23
2023-03-12T17:11:25.160Z,9.43
2023-03-12T17:14:00.506Z,8.35
2023-03-12T17:16:28.270Z,8.70
2023-03-12T17:18:55.910Z,6.78
2023-03-12T17:21:24.419Z,6.60
2023-03-12T17:23:51.957Z,7.03
2023-03-12T17:26:19.438Z,8.40
2023-03-12T17:28:46.641Z,10.68
2023-03-12T17:31:14.021Z,11.82
2023-03-12T17:33:42.788Z,9.65
2023-03-12T17:36:10.410Z,8.15
2023-03-12T17:38:38.004Z,8.10
2023-03-12T17:41:16.521Z,7.75
2023-03-12T17:43:50.815Z,7.65
2023-03-12T17:46:18.400Z,8.13
2023-03-12T17:48:45.748Z,7.13
2023-03-12T17:51:12.939Z,8.05
2023-03-12T17:53:41.489Z,7.43
2023-03-12T17:56:11.857Z,7.33
2023-03-12T17:58:39.123Z,6.72
2023-03-12T18:01:07.654Z,7.32
2023-03-12T18:03:34.948Z,7.85
2023-03-12T18:06:02.888Z,7.05
2023-03-12T18:08:30.255Z,8.10
2023-03-12T18:10:57.530Z,11.23
2023-03-12T18:13:24.813Z,7.75
2023-03-12T18:15:57.422Z,10.40
2023-03-12T18:18:26.151Z,6.90
2023-03-12T18:20:54.133Z,7.45
2023-03-12T18:23:23.115Z,7.28
2023-03-12T18:25:50.594Z,6.80
2023-03-12T18:28:19.410Z,8.55
2023-03-12T18:30:47.747Z,7.95
2023-03-12T18:33:15.713Z,6.78
2023-03-12T18:35:43.714Z,6.63
2023-03-12T18:38:11.351Z,6.43
2023-03-12T18:40:39.076Z,6.38
2023-03-12T18:43:06.390Z,6.28
2023-03-12T18:45:33.761Z,6.13
2023-03-12T18:48:01.228Z,6.40
2023-03-12T18:50:28.523Z,6.63
2023-03-12T18:52:55.799Z,5.88
2023-03-12T18:55:23.242Z,5.68
2023-03-12T18:57:51.452Z,6.38
2023-03-12T19:00:19.416Z,6.07
2023-03-12T19:02:47.994Z,5.65
2023-03-12T19:05:16.639Z,5.20
2023-03-12T19:07:44.418Z,6.18
2023-03-12T19:10:12.857Z,8.82
2023-03-12T19:12:51.673Z,7.43
2023-03-12T19:15:21.613Z,8.13
2023-03-12T19:17:49.216Z,7.25
2023-03-12T19:20:16.939Z,6.15
2023-03-12T19:22:44.171Z,8.63
2023-03-12T19:25:11.839Z,5.47
2023-03-12T19:27:38.986Z,5.90
2023-03-12T19:30:07.316Z,6.45
2023-03-12T19:32:43.304Z,7.05
2023-03-12T19:35:13.650Z,6.50
2023-03-12T19:40:10.480Z,7.40
2023-03-12T19:42:37.600Z,7.90
2023-03-12T19:45:05.542Z,6.50
2023-03-12T19:47:33.098Z,5.43
2023-03-12T19:50:00.567Z,5.07
2023-03-12T19:52:28.205Z,5.80
2023-03-12T19:55:04.378Z,4.35
2023-03-12T19:57:33.789Z,4.90
2023-03-12T20:00:01.730Z,5.35
2023-03-12T20:02:31.773Z,6.10
2023-03-12T20:04:59.387Z,5.40
2023-03-12T20:07:26.751Z,6.32
2023-03-12T20:09:54.012Z,10.75
2023-03-12T20:12:21.226Z,11.52
2023-03-12T20:14:48.528Z,16.80
2023-03-12T20:17:16.041Z,13.38
2023-03-12T20:19:43.454Z,13.73
2023-03-12T20:22:11.032Z,12.85
2023-03-12T20:24:38.116Z,10.55
2023-03-12T20:27:05.726Z,12.15
2023-03-12T20:29:33.069Z,11.23
2023-03-12T20:32:00.605Z,9.02
2023-03-12T20:34:28.186Z,10.15
2023-03-12T20:36:55.827Z,8.68
2023-03-12T20:39:23.072Z,8.95
2023-03-12T20:41:51.203Z,8.45
2023-03-12T20:44:19.050Z,8.40
2023-03-12T20:46:47.502Z,7.80
2023-03-12T20:49:15.208Z,8.75
2023-03-12T20:51:44.063Z,9.57
2023-03-12T20:54:11.871Z,9.48
2023-03-12T20:56:43.005Z,7.93
2023-03-12T20:59:11.738Z,7.45
2023-03-12T21:01:39.101Z,7.22
2023-03-12T21:04:06.426Z,6.85
2023-03-12T21:06:33.620Z,5.75
2023-03-12T21:09:01.096Z,5.00
2023-03-12T21:11:28.511Z,6.20
2023-03-12T21:13:55.791Z,6.70
2023-03-12T21:16:23.366Z,5.03
2023-03-12T21:18:58.435Z,4.13
2023-03-12T21:21:25.855Z,4.25
2023-03-12T21:23:53.370Z,4.43
2023-03-12T21:26:21.379Z,3.88
2023-03-12T21:28:48.691Z,4.38
2023-03-12T21:31:17.189Z,5.03
2023-03-12T21:33:44.649Z,4.22
2023-03-12T21:36:14.533Z,5.45
2023-03-12T21:38:42.557Z,6.25
2023-03-12T21:41:16.015Z,4.25
2023-03-12T21:43:45.072Z,4.55
2023-03-12T21:46:18.601Z,5.20
2023-03-12T21:48:47.664Z,6.65
2023-03-12T21:51:16.795Z,6.10
2023-03-12T21:53:44.418Z,4.25
2023-03-12T21:56:12.102Z,4.15
2023-03-12T21:58:39.336Z,3.70
2023-03-12T22:01:15.867Z,4.35
2023-03-12T22:03:45.645Z,3.53
2023-03-12T22:06:15.025Z,3.53
2023-03-12T22:08:43.520Z,3.33
2023-03-12T22:11:10.627Z,4.07
2023-03-12T22:13:37.861Z,4.47
2023-03-12T22:16:08.443Z,4.43
2023-03-12T22:18:43.192Z,4.50
2023-03-12T22:21:19.927Z,3.95
2023-03-12T22:23:52.474Z,3.50
2023-03-12T22:26:22.760Z,3.50
2023-03-12T22:28:53.040Z,4.20
2023-03-12T22:31:22.443Z,4.35
2023-03-12T22:33:49.984Z,4.28
2023-03-12T22:36:18.605Z,3.47
2023-03-12T22:38:49.569Z,4.03
2023-03-12T22:41:24.512Z,4.13
2023-03-12T22:43:56.028Z,2.60
2023-03-12T22:46:25.402Z,2.17
2023-03-12T22:48:59.432Z,2.67
2023-03-12T22:51:28.705Z,3.45
2023-03-12T22:53:56.366Z,2.70
2023-03-12T22:56:23.901Z,2.42
2023-03-12T22:58:51.200Z,3.28
2023-03-12T23:01:21.482Z,3.15
2023-03-12T23:03:49.661Z,3.35
2023-03-12T23:06:21.195Z,2.78
2023-03-12T23:08:49.071Z,2.97
2023-03-12T23:11:17.318Z,3.42
2023-03-12T23:13:47.637Z,3.03
2023-03-12T23:16:19.240Z,3.13
2023-03-12T23:18:47.442Z,4.22
2023-03-12T23:21:21.525Z,4.07
2023-03-12T23:23:49.841Z,3.92
2023-03-12T23:26:23.982Z,4.93
2023-03-12T23:28:52.754Z,4.82
2023-03-12T23:31:21.108Z,4.68
2023-03-12T23:33:48.647Z,4.88
2023-03-12T23:36:19.312Z,4.97
2023-03-12T23:38:48.080Z,4.85
2023-03-12T23:41:22.074Z,4.90
2023-03-12T23:43:50.255Z,4.38
2023-03-12T23:46:18.196Z,4.88
2023-03-12T23:48:46.394Z,6.05
2023-03-12T23:51:20.897Z,5.15
2023-03-12T23:53:51.872Z,5.28
2023-03-12T23:56:22.504Z,4.05
2023-03-12T23:58:50.550Z,4.22
